Howard, Kansas
Current Conditions -  °F | °C
As of 11:55 AM on Thursday 30 Oct 2014 (Local Time) from KIDP Reporting Station
Clear Clear  
Wind Chill: 66°   Ceiling: Unl
Heat Index: 66°   Visibility: 10mi
Dew Point: 41°   Wind: 14mph
Humidity: 40%   Direction: 320°NW
Pressure: 30.08"   Gusts: 21mph
Location:  37.47°N, 96.26°W
Report Text: KIDP 301655Z AUTO 32012G18KT 10SM CLR 19/05 A3008 RMK AO2
Loading
Personal Weather Stations






























Interactive Weather Map
Tropical Storm Tracking
New forecast layout! Learn more

10-Day Weather Forecast

Advertisements
Track Severe Weather on mobile